sensor_id;sensor_type;location;lat;lon;timestamp;pressure;altitude;pressure_sealevel;temperature;humidity
14067;BME280;7108;42.684;23.350;2022-09-12T00:00:40;95125.78;;;16.53;100.00
14067;BME280;7108;42.684;23.350;2022-09-12T00:03:05;95132.72;;;16.64;100.00
14067;BME280;7108;42.684;23.350;2022-09-12T00:05:31;95135.44;;;16.64;100.00
14067;BME280;7108;42.684;23.350;2022-09-12T00:07:57;95135.53;;;16.47;100.00
14067;BME280;7108;42.684;23.350;2022-09-12T00:10:23;95144.50;;;16.37;100.00
14067;BME280;7108;42.684;23.350;2022-09-12T00:12:49;95148.75;;;16.45;100.00
14067;BME280;7108;42.684;23.350;2022-09-12T00:15:14;95147.97;;;16.48;100.00
14067;BME280;7108;42.684;23.350;2022-09-12T00:17:40;95141.78;;;16.37;100.00
14067;BME280;7108;42.684;23.350;2022-09-12T00:20:07;95159.25;;;16.40;100.00
14067;BME280;7108;42.684;23.350;2022-09-12T00:22:34;95139.88;;;16.31;100.00
14067;BME280;7108;42.684;23.350;2022-09-12T00:25:00;95155.38;;;16.41;100.00
14067;BME280;7108;42.684;23.350;2022-09-12T00:27:26;95160.47;;;16.35;100.00
14067;BME280;7108;42.684;23.350;2022-09-12T00:29:52;95154.59;;;16.43;100.00
14067;BME280;7108;42.684;23.350;2022-09-12T00:32:18;95164.34;;;16.38;100.00
14067;BME280;7108;42.684;23.350;2022-09-12T00:34:44;95149.25;;;16.16;100.00
14067;BME280;7108;42.684;23.350;2022-09-12T00:37:09;95150.41;;;16.11;100.00
14067;BME280;7108;42.684;23.350;2022-09-12T00:39:35;95135.72;;;16.02;100.00
14067;BME280;7108;42.684;23.350;2022-09-12T00:42:00;95149.66;;;16.11;100.00
14067;BME280;7108;42.684;23.350;2022-09-12T00:46:58;95153.13;;;16.18;100.00
14067;BME280;7108;42.684;23.350;2022-09-12T00:52:31;95156.66;;;16.12;100.00
14067;BME280;7108;42.684;23.350;2022-09-12T01:00:19;95148.50;;;16.12;100.00
14067;BME280;7108;42.684;23.350;2022-09-12T01:02:51;95149.25;;;16.16;100.00
14067;BME280;7108;42.684;23.350;2022-09-12T01:05:20;95146.88;;;16.21;100.00
14067;BME280;7108;42.684;23.350;2022-09-12T01:07:46;95131.34;;;16.25;100.00
14067;BME280;7108;42.684;23.350;2022-09-12T01:10:15;95133.69;;;16.27;100.00
14067;BME280;7108;42.684;23.350;2022-09-12T01:12:42;95144.19;;;16.28;100.00
14067;BME280;7108;42.684;23.350;2022-09-12T01:15:08;95127.84;;;16.25;100.00
14067;BME280;7108;42.684;23.350;2022-09-12T01:20:20;95137.97;;;16.17;100.00
14067;BME280;7108;42.684;23.350;2022-09-12T01:30:44;95136.88;;;16.04;100.00
14067;BME280;7108;42.684;23.350;2022-09-12T01:33:30;95139.19;;;16.02;100.00
14067;BME280;7108;42.684;23.350;2022-09-12T01:38:40;95134.94;;;15.98;100.00
14067;BME280;7108;42.684;23.350;2022-09-12T01:41:29;95133.41;;;15.97;100.00
14067;BME280;7108;42.684;23.350;2022-09-12T01:55:30;95111.28;;;15.95;100.00
14067;BME280;7108;42.684;23.350;2022-09-12T01:58:05;95123.69;;;15.99;100.00
14067;BME280;7108;42.684;23.350;2022-09-12T02:00:36;95123.31;;;15.94;100.00
14067;BME280;7108;42.684;23.350;2022-09-12T02:03:13;95118.28;;;15.85;100.00
14067;BME280;7108;42.684;23.350;2022-09-12T02:05:53;95110.13;;;15.89;100.00
14067;BME280;7108;42.684;23.350;2022-09-12T02:08:45;95118.28;;;15.89;100.00
14067;BME280;7108;42.684;23.350;2022-09-12T02:11:12;95126.47;;;15.78;100.00
14067;BME280;7108;42.684;23.350;2022-09-12T02:14:06;95137.28;;;15.85;100.00
14067;BME280;7108;42.684;23.350;2022-09-12T02:16:44;95131.13;;;15.74;100.00
14067;BME280;7108;42.684;23.350;2022-09-12T02:19:15;95130.34;;;15.67;100.00
14067;BME280;7108;42.684;23.350;2022-09-12T02:21:45;95134.25;;;15.63;100.00
14067;BME280;7108;42.684;23.350;2022-09-12T02:24:14;95133.50;;;15.55;100.00
14067;BME280;7108;42.684;23.350;2022-09-12T02:26:51;95121.47;;;15.46;100.00
14067;BME280;7108;42.684;23.350;2022-09-12T02:29:18;95111.38;;;15.43;100.00
14067;BME280;7108;42.684;23.350;2022-09-12T02:31:47;95128.47;;;15.50;100.00
14067;BME280;7108;42.684;23.350;2022-09-12T02:34:40;95135.81;;;15.57;100.00
14067;BME280;7108;42.684;23.350;2022-09-12T02:39:41;95124.97;;;15.46;100.00
14067;BME280;7108;42.684;23.350;2022-09-12T02:42:07;95127.69;;;15.53;100.00
14067;BME280;7108;42.684;23.350;2022-09-12T02:44:34;95133.88;;;15.54;100.00
14067;BME280;7108;42.684;23.350;2022-09-12T02:47:27;95135.47;;;15.44;100.00
14067;BME280;7108;42.684;23.350;2022-09-12T02:49:56;95127.69;;;15.32;100.00
14067;BME280;7108;42.684;23.350;2022-09-12T02:52:23;95131.19;;;15.47;100.00
14067;BME280;7108;42.684;23.350;2022-09-12T02:54:50;95128.84;;;15.49;100.00
14067;BME280;7108;42.684;23.350;2022-09-12T02:57:20;95134.28;;;15.45;100.00
14067;BME280;7108;42.684;23.350;2022-09-12T02:59:47;95142.06;;;15.50;100.00
14067;BME280;7108;42.684;23.350;2022-09-12T03:05:13;95155.59;;;15.61;100.00
14067;BME280;7108;42.684;23.350;2022-09-12T03:13:13;95148.63;;;15.35;100.00
14067;BME280;7108;42.684;23.350;2022-09-12T03:26:29;95150.19;;;15.40;100.00
14067;BME280;7108;42.684;23.350;2022-09-12T03:28:57;95154.06;;;15.42;100.00
14067;BME280;7108;42.684;23.350;2022-09-12T03:31:24;95147.09;;;15.34;100.00
14067;BME280;7108;42.684;23.350;2022-09-12T03:33:50;95155.59;;;15.15;100.00
14067;BME280;7108;42.684;23.350;2022-09-12T03:36:27;95149.78;;;15.20;100.00
14067;BME280;7108;42.684;23.350;2022-09-12T03:38:52;95144.75;;;15.19;100.00
14067;BME280;7108;42.684;23.350;2022-09-12T03:41:19;95142.81;;;15.26;100.00
14067;BME280;7108;42.684;23.350;2022-09-12T03:43:45;95150.22;;;15.29;100.00
14067;BME280;7108;42.684;23.350;2022-09-12T03:46:11;95143.63;;;15.27;100.00
14067;BME280;7108;42.684;23.350;2022-09-12T03:48:37;95145.94;;;15.25;100.00
14067;BME280;7108;42.684;23.350;2022-09-12T03:51:05;95149.81;;;15.34;100.00
14067;BME280;7108;42.684;23.350;2022-09-12T03:53:31;95150.97;;;15.33;100.00
14067;BME280;7108;42.684;23.350;2022-09-12T03:55:57;95149.78;;;15.38;100.00
14067;BME280;7108;42.684;23.350;2022-09-12T03:58:23;95145.94;;;15.28;100.00
14067;BME280;7108;42.684;23.350;2022-09-12T04:00:49;95139.72;;;15.28;100.00
14067;BME280;7108;42.684;23.350;2022-09-12T04:03:15;95149.81;;;15.34;100.00
14067;BME280;7108;42.684;23.350;2022-09-12T04:05:40;95144.78;;;15.29;100.00
14067;BME280;7108;42.684;23.350;2022-09-12T04:08:06;95144.38;;;15.24;100.00
14067;BME280;7108;42.684;23.350;2022-09-12T04:10:31;95154.44;;;15.30;100.00
14067;BME280;7108;42.684;23.350;2022-09-12T04:12:57;95155.19;;;15.20;100.00
14067;BME280;7108;42.684;23.350;2022-09-12T04:15:23;95160.63;;;15.20;100.00
14067;BME280;7108;42.684;23.350;2022-09-12T04:17:48;95144.34;;;15.20;100.00
14067;BME280;7108;42.684;23.350;2022-09-12T04:20:13;95142.06;;;15.22;100.00
14067;BME280;7108;42.684;23.350;2022-09-12T04:22:39;95160.66;;;15.24;100.00
14067;BME280;7108;42.684;23.350;2022-09-12T04:25:05;95145.50;;;15.06;100.00
14067;BME280;7108;42.684;23.350;2022-09-12T04:27:31;95165.69;;;15.22;100.00
14067;BME280;7108;42.684;23.350;2022-09-12T04:29:57;95169.22;;;15.29;100.00
14067;BME280;7108;42.684;23.350;2022-09-12T04:32:24;95173.84;;;15.25;100.00
14067;BME280;7108;42.684;23.350;2022-09-12T04:34:50;95165.28;;;15.20;100.00
14067;BME280;7108;42.684;23.350;2022-09-12T04:37:17;95171.13;;;15.22;100.00
14067;BME280;7108;42.684;23.350;2022-09-12T04:39:42;95160.66;;;15.10;100.00
14067;BME280;7108;42.684;23.350;2022-09-12T04:42:07;95154.03;;;15.18;100.00
14067;BME280;7108;42.684;23.350;2022-09-12T04:44:33;95164.50;;;15.19;100.00
14067;BME280;7108;42.684;23.350;2022-09-12T04:46:58;95154.84;;;15.22;100.00
14067;BME280;7108;42.684;23.350;2022-09-12T04:49:24;95150.56;;;15.17;100.00
14067;BME280;7108;42.684;23.350;2022-09-12T04:51:52;95170.38;;;15.25;100.00
14067;BME280;7108;42.684;23.350;2022-09-12T04:54:18;95158.31;;;15.15;100.00
14067;BME280;7108;42.684;23.350;2022-09-12T04:56:46;95174.63;;;15.33;100.00
14067;BME280;7108;42.684;23.350;2022-09-12T04:59:14;95174.63;;;15.43;100.00
14067;BME280;7108;42.684;23.350;2022-09-12T05:01:40;95162.59;;;15.34;100.00
14067;BME280;7108;42.684;23.350;2022-09-12T05:04:06;95171.13;;;15.32;100.00
14067;BME280;7108;42.684;23.350;2022-09-12T05:06:33;95176.19;;;15.44;100.00
14067;BME280;7108;42.684;23.350;2022-09-12T05:08:59;95167.63;;;15.42;100.00
14067;BME280;7108;42.684;23.350;2022-09-12T05:11:31;95172.31;;;15.42;100.00
14067;BME280;7108;42.684;23.350;2022-09-12T05:13:57;95165.72;;;15.39;100.00
14067;BME280;7108;42.684;23.350;2022-09-12T05:16:24;95158.34;;;15.40;100.00
14067;BME280;7108;42.684;23.350;2022-09-12T05:18:50;95169.59;;;15.42;100.00
14067;BME280;7108;42.684;23.350;2022-09-12T05:21:18;95162.59;;;15.51;100.00
14067;BME280;7108;42.684;23.350;2022-09-12T05:23:43;95173.44;;;15.51;100.00
14067;BME280;7108;42.684;23.350;2022-09-12T05:26:12;95169.97;;;15.58;100.00
14067;BME280;7108;42.684;23.350;2022-09-12T05:28:39;95169.56;;;15.52;100.00
14067;BME280;7108;42.684;23.350;2022-09-12T05:31:11;95156.38;;;15.58;100.00
14067;BME280;7108;42.684;23.350;2022-09-12T05:33:38;95176.09;;;15.89;100.00
14067;BME280;7108;42.684;23.350;2022-09-12T05:36:06;95179.22;;;15.88;100.00
14067;BME280;7108;42.684;23.350;2022-09-12T05:38:36;95179.97;;;15.95;100.00
14067;BME280;7108;42.684;23.350;2022-09-12T05:41:11;95160.47;;;16.32;100.00
14067;BME280;7108;42.684;23.350;2022-09-12T05:43:38;95177.00;;;16.72;100.00
14067;BME280;7108;42.684;23.350;2022-09-12T05:46:11;95175.53;;;16.50;100.00
14067;BME280;7108;42.684;23.350;2022-09-12T05:48:38;95171.69;;;16.44;100.00
14067;BME280;7108;42.684;23.350;2022-09-12T05:51:06;95160.47;;;16.35;100.00
14067;BME280;7108;42.684;23.350;2022-09-12T05:53:34;95153.13;;;16.15;100.00
14067;BME280;7108;42.684;23.350;2022-09-12T05:58:28;95147.28;;;16.20;100.00
14067;BME280;7108;42.684;23.350;2022-09-12T06:00:53;95158.56;;;16.15;100.00
14067;BME280;7108;42.684;23.350;2022-09-12T06:03:20;95151.97;;;16.12;100.00
14067;BME280;7108;42.684;23.350;2022-09-12T06:05:45;95155.84;;;16.18;100.00
14067;BME280;7108;42.684;23.350;2022-09-12T06:08:11;95153.50;;;16.27;100.00
14067;BME280;7108;42.684;23.350;2022-09-12T06:10:36;95151.50;;;16.38;100.00
14067;BME280;7108;42.684;23.350;2022-09-12T06:13:01;95144.50;;;16.44;100.00
14067;BME280;7108;42.684;23.350;2022-09-12T06:15:28;95142.06;;;16.60;100.00
14067;BME280;7108;42.684;23.350;2022-09-12T06:17:53;95135.09;;;16.52;100.00
14067;BME280;7108;42.684;23.350;2022-09-12T06:20:19;95133.50;;;16.65;100.00
14067;BME280;7108;42.684;23.350;2022-09-12T06:22:44;95146.69;;;16.70;100.00
14067;BME280;7108;42.684;23.350;2022-09-12T06:25:10;95142.72;;;16.78;100.00
14067;BME280;7108;42.684;23.350;2022-09-12T06:27:35;95136.81;;;16.90;100.00
14067;BME280;7108;42.684;23.350;2022-09-12T06:30:01;95162.41;;;17.03;100.00
14067;BME280;7108;42.684;23.350;2022-09-12T06:32:29;95150.41;;;16.93;100.00
14067;BME280;7108;42.684;23.350;2022-09-12T06:34:54;95172.09;;;17.07;100.00
14067;BME280;7108;42.684;23.350;2022-09-12T06:37:20;95173.25;;;17.06;100.00
14067;BME280;7108;42.684;23.350;2022-09-12T06:39:45;95170.19;;;17.01;100.00
14067;BME280;7108;42.684;23.350;2022-09-12T06:42:12;95177.28;;;16.88;100.00
14067;BME280;7108;42.684;23.350;2022-09-12T06:44:39;95166.00;;;16.93;100.00
14067;BME280;7108;42.684;23.350;2022-09-12T06:47:05;95175.75;;;16.87;100.00
14067;BME280;7108;42.684;23.350;2022-09-12T06:49:31;95174.16;;;16.93;100.00
14067;BME280;7108;42.684;23.350;2022-09-12T06:51:57;95177.56;;;17.04;100.00
14067;BME280;7108;42.684;23.350;2022-09-12T06:54:23;95186.00;;;17.19;100.00
14067;BME280;7108;42.684;23.350;2022-09-12T06:56:50;95187.97;;;17.19;100.00
14067;BME280;7108;42.684;23.350;2022-09-12T06:59:16;95160.13;;;16.98;100.00
14067;BME280;7108;42.684;23.350;2022-09-12T07:01:41;95169.00;;;17.05;100.00
14067;BME280;7108;42.684;23.350;2022-09-12T07:04:07;95171.31;;;17.10;100.00
14067;BME280;7108;42.684;23.350;2022-09-12T07:06:38;95179.91;;;17.05;100.00
14067;BME280;7108;42.684;23.350;2022-09-12T07:09:09;95172.91;;;17.04;100.00
14067;BME280;7108;42.684;23.350;2022-09-12T07:11:37;95183.38;;;17.09;100.00
14067;BME280;7108;42.684;23.350;2022-09-12T07:14:04;95176.53;;;16.84;100.00
14067;BME280;7108;42.684;23.350;2022-09-12T07:16:30;95188.13;;;16.95;100.00
14067;BME280;7108;42.684;23.350;2022-09-12T07:18:58;95194.69;;;17.04;100.00
14067;BME280;7108;42.684;23.350;2022-09-12T07:21:24;95180.34;;;16.97;100.00
14067;BME280;7108;42.684;23.350;2022-09-12T07:23:50;95184.63;;;16.98;100.00
14067;BME280;7108;42.684;23.350;2022-09-12T07:26:26;95177.97;;;17.02;100.00
14067;BME280;7108;42.684;23.350;2022-09-12T07:28:53;95178.22;;;17.21;100.00
14067;BME280;7108;42.684;23.350;2022-09-12T07:31:20;95177.69;;;17.40;100.00
14067;BME280;7108;42.684;23.350;2022-09-12T07:33:47;95188.97;;;17.46;100.00
14067;BME280;7108;42.684;23.350;2022-09-12T07:36:16;95186.91;;;17.60;100.00
14067;BME280;7108;42.684;23.350;2022-09-12T07:38:42;95181.47;;;17.57;100.00
14067;BME280;7108;42.684;23.350;2022-09-12T07:41:12;95187.28;;;17.59;100.00
14067;BME280;7108;42.684;23.350;2022-09-12T07:43:38;95175.25;;;17.56;100.00
14067;BME280;7108;42.684;23.350;2022-09-12T07:46:04;95161.63;;;17.56;100.00
14067;BME280;7108;42.684;23.350;2022-09-12T07:48:29;95165.03;;;17.67;100.00
14067;BME280;7108;42.684;23.350;2022-09-12T07:51:02;95174.53;;;17.89;100.00
14067;BME280;7108;42.684;23.350;2022-09-12T07:53:39;95182.19;;;18.04;100.00
14067;BME280;7108;42.684;23.350;2022-09-12T07:56:07;95179.13;;;17.99;100.00
14067;BME280;7108;42.684;23.350;2022-09-12T07:58:34;95181.75;;;18.09;100.00
14067;BME280;7108;42.684;23.350;2022-09-12T08:01:02;95165.03;;;18.04;100.00
14067;BME280;7108;42.684;23.350;2022-09-12T08:03:28;95191.38;;;18.17;100.00
14067;BME280;7108;42.684;23.350;2022-09-12T08:05:54;95189.16;;;18.05;100.00
14067;BME280;7108;42.684;23.350;2022-09-12T08:08:19;95181.09;;;17.98;100.00
14067;BME280;7108;42.684;23.350;2022-09-12T08:10:45;95191.59;;;17.96;100.00
14067;BME280;7108;42.684;23.350;2022-09-12T08:13:10;95177.53;;;18.01;100.00
14067;BME280;7108;42.684;23.350;2022-09-12T08:15:36;95184.38;;;17.79;100.00
14067;BME280;7108;42.684;23.350;2022-09-12T08:18:01;95185.91;;;17.80;100.00
14067;BME280;7108;42.684;23.350;2022-09-12T08:20:26;95169.63;;;17.73;100.00
14067;BME280;7108;42.684;23.350;2022-09-12T08:22:52;95180.06;;;17.82;100.00
14067;BME280;7108;42.684;23.350;2022-09-12T08:25:18;95175.06;;;17.73;100.00
14067;BME280;7108;42.684;23.350;2022-09-12T08:27:43;95188.59;;;17.87;100.00
14067;BME280;7108;42.684;23.350;2022-09-12T08:30:11;95188.13;;;17.96;100.00
14067;BME280;7108;42.684;23.350;2022-09-12T08:32:37;95175.50;;;18.09;100.00
14067;BME280;7108;42.684;23.350;2022-09-12T08:35:02;95173.88;;;18.18;100.00
14067;BME280;7108;42.684;23.350;2022-09-12T08:37:31;95174.44;;;18.36;100.00
14067;BME280;7108;42.684;23.350;2022-09-12T08:39:56;95158.34;;;18.12;100.00
14067;BME280;7108;42.684;23.350;2022-09-12T08:45:18;95173.38;;;18.30;100.00
14067;BME280;7108;42.684;23.350;2022-09-12T08:47:47;95182.72;;;18.29;100.00
14067;BME280;7108;42.684;23.350;2022-09-12T08:50:18;95178.81;;;18.30;100.00
14067;BME280;7108;42.684;23.350;2022-09-12T08:53:02;95179.91;;;18.36;100.00
14067;BME280;7108;42.684;23.350;2022-09-12T08:55:37;95170.88;;;18.42;100.00
14067;BME280;7108;42.684;23.350;2022-09-12T08:58:16;95156.00;;;18.47;100.00
14067;BME280;7108;42.684;23.350;2022-09-12T09:01:09;95154.34;;;18.53;100.00
14067;BME280;7108;42.684;23.350;2022-09-12T09:11:48;95148.94;;;18.49;100.00
14067;BME280;7108;42.684;23.350;2022-09-12T09:17:30;95159.28;;;18.65;100.00
14067;BME280;7108;42.684;23.350;2022-09-12T09:22:59;95152.50;;;18.76;100.00
14067;BME280;7108;42.684;23.350;2022-09-12T09:26:22;95146.41;;;18.65;100.00
14067;BME280;7108;42.684;23.350;2022-09-12T09:28:30;95129.72;;;18.60;100.00
14067;BME280;7108;42.684;23.350;2022-09-12T09:30:58;95138.94;;;18.69;100.00
14067;BME280;7108;42.684;23.350;2022-09-12T09:33:27;95131.75;;;18.82;100.00
14067;BME280;7108;42.684;23.350;2022-09-12T09:39:04;95134.63;;;18.98;100.00
14067;BME280;7108;42.684;23.350;2022-09-12T09:44:34;95130.06;;;19.18;100.00
14067;BME280;7108;42.684;23.350;2022-09-12T09:47:00;95128.97;;;19.12;100.00
14067;BME280;7108;42.684;23.350;2022-09-12T09:49:28;95130.06;;;19.18;100.00
14067;BME280;7108;42.684;23.350;2022-09-12T09:51:55;95131.03;;;19.31;100.00
14067;BME280;7108;42.684;23.350;2022-09-12T09:54:25;95130.75;;;19.48;100.00
14067;BME280;7108;42.684;23.350;2022-09-12T09:56:54;95103.34;;;19.52;100.00
14067;BME280;7108;42.684;23.350;2022-09-12T09:59:27;95118.16;;;19.73;100.00
14067;BME280;7108;42.684;23.350;2022-09-12T10:02:03;95116.88;;;19.59;100.00
14067;BME280;7108;42.684;23.350;2022-09-12T10:04:53;95112.69;;;19.73;100.00
14067;BME280;7108;42.684;23.350;2022-09-12T10:07:20;95121.63;;;19.77;99.99
14067;BME280;7108;42.684;23.350;2022-09-12T10:12:37;95113.94;;;19.92;98.98
14067;BME280;7108;42.684;23.350;2022-09-12T10:17:45;95110.13;;;20.09;95.17
14067;BME280;7108;42.684;23.350;2022-09-12T10:20:43;95114.19;;;20.01;90.88
14067;BME280;7108;42.684;23.350;2022-09-12T10:25:52;95100.66;;;19.90;94.07
14067;BME280;7108;42.684;23.350;2022-09-12T10:28:24;95095.09;;;19.97;98.92
14067;BME280;7108;42.684;23.350;2022-09-12T10:30:55;95122.59;;;20.10;98.92
14067;BME280;7108;42.684;23.350;2022-09-12T10:33:22;95106.56;;;20.12;100.00
14067;BME280;7108;42.684;23.350;2022-09-12T10:35:51;95115.09;;;20.14;95.23
14067;BME280;7108;42.684;23.350;2022-09-12T10:38:26;95117.81;;;19.94;92.86
14067;BME280;7108;42.684;23.350;2022-09-12T10:40:58;95120.47;;;19.98;96.03
14067;BME280;7108;42.684;23.350;2022-09-12T10:45:51;95116.78;;;20.08;81.80
14067;BME280;7108;42.684;23.350;2022-09-12T10:48:26;95114.66;;;20.15;85.08
14067;BME280;7108;42.684;23.350;2022-09-12T10:50:52;95117.41;;;20.15;77.42
14067;BME280;7108;42.684;23.350;2022-09-12T10:53:31;95111.59;;;20.13;81.05
14067;BME280;7108;42.684;23.350;2022-09-12T10:56:09;95120.59;;;20.33;77.62
14067;BME280;7108;42.684;23.350;2022-09-12T10:59:07;95114.25;;;20.36;78.16
14067;BME280;7108;42.684;23.350;2022-09-12T11:01:39;95097.44;;;20.38;80.29
14067;BME280;7108;42.684;23.350;2022-09-12T11:23:32;95119.94;;;20.26;87.57
14067;BME280;7108;42.684;23.350;2022-09-12T11:34:08;95112.81;;;20.67;88.00
14067;BME280;7108;42.684;23.350;2022-09-12T11:39:37;95133.00;;;20.18;82.11
14067;BME280;7108;42.684;23.350;2022-09-12T11:42:09;95112.91;;;20.05;85.65
14067;BME280;7108;42.684;23.350;2022-09-12T11:44:40;95131.19;;;19.89;89.26
14067;BME280;7108;42.684;23.350;2022-09-12T11:47:10;95112.41;;;19.91;87.73
14067;BME280;7108;42.684;23.350;2022-09-12T11:49:39;95116.56;;;19.76;87.30
14067;BME280;7108;42.684;23.350;2022-09-12T11:52:18;95117.56;;;19.85;85.22
14067;BME280;7108;42.684;23.350;2022-09-12T11:54:48;95116.94;;;20.01;86.42
14067;BME280;7108;42.684;23.350;2022-09-12T12:02:39;95107.06;;;19.84;83.84
14067;BME280;7108;42.684;23.350;2022-09-12T12:05:21;95122.75;;;19.80;87.07
14067;BME280;7108;42.684;23.350;2022-09-12T12:07:57;95108.44;;;19.73;88.84
14067;BME280;7108;42.684;23.350;2022-09-12T12:11:09;95113.22;;;19.88;89.17
14067;BME280;7108;42.684;23.350;2022-09-12T12:15:55;95100.00;;;20.25;86.10
14067;BME280;7108;42.684;23.350;2022-09-12T12:18:24;95092.53;;;20.29;84.60
14067;BME280;7108;42.684;23.350;2022-09-12T12:20:52;95107.94;;;20.58;83.46
14067;BME280;7108;42.684;23.350;2022-09-12T12:25:54;95106.16;;;20.48;67.03
14067;BME280;7108;42.684;23.350;2022-09-12T12:31:07;95105.09;;;20.27;67.38
14067;BME280;7108;42.684;23.350;2022-09-12T12:36:09;95086.00;;;20.23;78.01
14067;BME280;7108;42.684;23.350;2022-09-12T12:38:51;95077.91;;;20.36;79.16
14067;BME280;7108;42.684;23.350;2022-09-12T12:46:13;95095.25;;;20.29;80.20
14067;BME280;7108;42.684;23.350;2022-09-12T12:54:01;95106.19;;;19.87;82.23
14067;BME280;7108;42.684;23.350;2022-09-12T12:56:32;95107.50;;;19.60;82.34
14067;BME280;7108;42.684;23.350;2022-09-12T12:59:01;95094.38;;;19.28;85.41
14067;BME280;7108;42.684;23.350;2022-09-12T13:01:28;95078.31;;;19.30;88.95
14067;BME280;7108;42.684;23.350;2022-09-12T13:04:03;95093.28;;;19.45;91.00
14067;BME280;7108;42.684;23.350;2022-09-12T13:06:35;95113.22;;;19.46;88.13
14067;BME280;7108;42.684;23.350;2022-09-12T13:11:35;95114.94;;;19.36;88.61
14067;BME280;7108;42.684;23.350;2022-09-12T13:14:05;95122.19;;;19.23;93.84
14067;BME280;7108;42.684;23.350;2022-09-12T13:16:39;95092.19;;;19.20;96.79
14067;BME280;7108;42.684;23.350;2022-09-12T13:19:13;95098.41;;;19.43;95.76
14067;BME280;7108;42.684;23.350;2022-09-12T13:22:03;95096.19;;;19.58;94.15
14067;BME280;7108;42.684;23.350;2022-09-12T13:24:29;95095.06;;;19.55;92.50
14067;BME280;7108;42.684;23.350;2022-09-12T13:26:55;95088.72;;;19.39;91.25
14067;BME280;7108;42.684;23.350;2022-09-12T13:29:23;95071.56;;;19.15;90.04
14067;BME280;7108;42.684;23.350;2022-09-12T13:34:21;95076.88;;;19.26;87.31
14067;BME280;7108;42.684;23.350;2022-09-12T13:40:23;95103.56;;;19.38;82.27
14067;BME280;7108;42.684;23.350;2022-09-12T13:42:52;95092.41;;;19.29;85.30
14067;BME280;7108;42.684;23.350;2022-09-12T13:45:34;95093.78;;;19.40;85.66
14067;BME280;7108;42.684;23.350;2022-09-12T13:48:02;95077.63;;;19.26;89.83
14067;BME280;7108;42.684;23.350;2022-09-12T13:50:38;95085.09;;;19.45;89.95
14067;BME280;7108;42.684;23.350;2022-09-12T13:53:13;95083.56;;;19.44;92.09
14067;BME280;7108;42.684;23.350;2022-09-12T13:55:44;95084.13;;;19.55;89.96
14067;BME280;7108;42.684;23.350;2022-09-12T14:00:45;95090.56;;;19.68;86.10
14067;BME280;7108;42.684;23.350;2022-09-12T14:03:32;95087.28;;;19.54;82.29
14067;BME280;7108;42.684;23.350;2022-09-12T14:06:16;95093.97;;;19.72;82.17
14067;BME280;7108;42.684;23.350;2022-09-12T14:08:44;95080.03;;;19.67;78.74
14067;BME280;7108;42.684;23.350;2022-09-12T14:11:28;95095.16;;;19.71;82.55
14067;BME280;7108;42.684;23.350;2022-09-12T14:13:55;95062.75;;;19.50;81.11
14067;BME280;7108;42.684;23.350;2022-09-12T14:16:22;95085.44;;;19.70;81.99
14067;BME280;7108;42.684;23.350;2022-09-12T14:18:51;95090.56;;;19.68;81.67
14067;BME280;7108;42.684;23.350;2022-09-12T14:21:35;95097.56;;;19.69;84.96
14067;BME280;7108;42.684;23.350;2022-09-12T14:24:03;95099.22;;;19.63;84.84
14067;BME280;7108;42.684;23.350;2022-09-12T14:26:33;95101.09;;;19.47;86.07
14067;BME280;7108;42.684;23.350;2022-09-12T14:29:01;95100.19;;;19.30;89.21
14067;BME280;7108;42.684;23.350;2022-09-12T14:31:37;95104.84;;;19.33;89.81
14067;BME280;7108;42.684;23.350;2022-09-12T14:34:17;95103.03;;;19.46;90.39
14067;BME280;7108;42.684;23.350;2022-09-12T14:36:50;95096.38;;;19.47;89.15
14067;BME280;7108;42.684;23.350;2022-09-12T14:39:32;95097.78;;;19.55;90.99
14067;BME280;7108;42.684;23.350;2022-09-12T14:42:10;95098.66;;;19.52;91.30
14067;BME280;7108;42.684;23.350;2022-09-12T14:44:38;95090.22;;;19.43;90.22
14067;BME280;7108;42.684;23.350;2022-09-12T14:47:18;95098.84;;;19.42;90.87
14067;BME280;7108;42.684;23.350;2022-09-12T14:49:45;95091.03;;;19.40;92.57
14067;BME280;7108;42.684;23.350;2022-09-12T14:52:36;95101.00;;;19.50;89.89
14067;BME280;7108;42.684;23.350;2022-09-12T14:57:40;95100.25;;;19.50;89.78
14067;BME280;7108;42.684;23.350;2022-09-12T15:02:37;95103.28;;;19.32;93.08
14067;BME280;7108;42.684;23.350;2022-09-12T15:10:05;95093.94;;;18.81;96.23
14067;BME280;7108;42.684;23.350;2022-09-12T15:12:31;95092.81;;;18.78;98.28
14067;BME280;7108;42.684;23.350;2022-09-12T15:15:13;95099.41;;;18.81;100.00
14067;BME280;7108;42.684;23.350;2022-09-12T15:17:44;95100.16;;;18.81;100.00
14067;BME280;7108;42.684;23.350;2022-09-12T15:20:12;95096.25;;;18.82;100.00
14067;BME280;7108;42.684;23.350;2022-09-12T15:22:38;95109.81;;;18.89;100.00
14067;BME280;7108;42.684;23.350;2022-09-12T15:25:05;95096.00;;;18.73;100.00
14067;BME280;7108;42.684;23.350;2022-09-12T15:27:30;95098.09;;;18.62;100.00
14067;BME280;7108;42.684;23.350;2022-09-12T15:29:56;95097.97;;;18.69;100.00
14067;BME280;7108;42.684;23.350;2022-09-12T15:32:24;95089.34;;;18.74;100.00
14067;BME280;7108;42.684;23.350;2022-09-12T15:34:50;95097.63;;;18.67;100.00
14067;BME280;7108;42.684;23.350;2022-09-12T15:37:18;95098.09;;;18.62;100.00
14067;BME280;7108;42.684;23.350;2022-09-12T15:39:44;95095.72;;;18.64;100.00
14067;BME280;7108;42.684;23.350;2022-09-12T15:42:14;95104.22;;;18.70;100.00
14067;BME280;7108;42.684;23.350;2022-09-12T15:44:41;95104.59;;;18.72;100.00
14067;BME280;7108;42.684;23.350;2022-09-12T15:47:13;95068.53;;;18.57;100.00
14067;BME280;7108;42.684;23.350;2022-09-12T15:49:39;95093.97;;;18.77;100.00
14067;BME280;7108;42.684;23.350;2022-09-12T15:52:06;95088.22;;;18.72;100.00
14067;BME280;7108;42.684;23.350;2022-09-12T15:54:32;95090.31;;;18.61;100.00
14067;BME280;7108;42.684;23.350;2022-09-12T15:56:57;95070.59;;;18.50;100.00